Time;durP1;ratioP1;P1;durP2;ratioP2;P2;SDS_P1;SDS_P2;PMS_P1;PMS_P2;Temp;Humidity;BMP_temperature;BMP_pressure;BME280_temperature;BME280_humidity;BME280_pressure;Samples;Min_cycle;Max_cycle;Signal;HPM_P1;HPM_P2
2021/12/02 00:00:15;;;;;;;1.52;0.80;;;8.40;91.20;;;;;;6177600;28;20097;-82
2021/12/02 00:03:17;;;;;;;1.10;0.65;;;8.40;91.30;;;;;;6177497;28;20061;-82
2021/12/02 00:06:20;;;;;;;2.13;0.73;;;8.50;90.60;;;;;;6177395;28;20054;-82
2021/12/02 00:09:23;;;;;;;1.20;0.63;;;8.40;90.60;;;;;;6177172;28;20412;-83
2021/12/02 00:12:25;;;;;;;1.75;0.80;;;8.50;90.60;;;;;;6177331;28;20043;-82
2021/12/02 00:15:32;;;;;;;1.80;0.70;;;8.50;90.70;;;;;;6176997;28;20064;-82
2021/12/02 00:22:07;;;;;;;2.63;0.50;;;8.40;90.40;;;;;;6126006;29;20044;-83
2021/12/02 00:25:10;;;;;;;2.38;0.63;;;8.40;90.60;;;;;;6155841;28;20115;-83
2021/12/02 00:28:13;;;;;;;1.15;0.57;;;8.40;90.30;;;;;;6152243;28;20043;-82
2021/12/02 00:31:17;;;;;;;1.35;0.50;;;8.40;90.60;;;;;;6152620;28;20051;-82
2021/12/02 00:34:19;;;;;;;0.75;0.47;;;8.40;90.60;;;;;;6152909;29;20569;-82
2021/12/02 00:37:21;;;;;;;4.53;0.63;;;8.40;90.40;;;;;;6151865;28;20425;-82
2021/12/02 00:40:24;;;;;;;2.85;0.75;;;8.40;90.30;;;;;;6152093;28;20413;-82
2021/12/02 00:43:28;;;;;;;0.90;0.40;;;8.40;90.40;;;;;;6152923;28;20051;-81
2021/12/02 00:46:32;;;;;;;2.50;0.45;;;8.40;90.70;;;;;;6153376;29;20122;-81
2021/12/02 00:49:34;;;;;;;1.67;0.43;;;8.40;90.70;;;;;;6151759;28;20047;-82
2021/12/02 00:52:38;;;;;;;5.50;0.50;;;8.40;90.60;;;;;;6152129;28;20145;-82
2021/12/02 00:55:41;;;;;;;1.45;0.80;;;8.40;90.40;;;;;;6152441;28;20050;-82
2021/12/02 00:58:47;;;;;;;6.32;1.08;;;8.50;90.40;;;;;;6154496;29;20055;-82
2021/12/02 01:01:50;;;;;;;3.53;0.52;;;8.50;90.20;;;;;;6155255;28;20050;-83
2021/12/02 01:04:52;;;;;;;2.92;0.47;;;8.50;90.20;;;;;;6152771;28;20457;-84
2021/12/02 01:07:54;;;;;;;3.42;0.82;;;8.50;90.10;;;;;;6153956;28;20701;-83
2021/12/02 01:10:58;;;;;;;1.15;0.57;;;8.50;90.00;;;;;;6155286;29;20508;-83
2021/12/02 01:14:00;;;;;;;0.82;0.30;;;8.50;90.00;;;;;;6154476;28;20111;-82
2021/12/02 01:17:01;;;;;;;0.95;0.55;;;8.40;90.00;;;;;;6154334;28;20106;-82
2021/12/02 01:20:04;;;;;;;1.33;0.60;;;8.40;90.10;;;;;;6164577;28;20049;-83
2021/12/02 01:23:08;;;;;;;2.25;0.70;;;8.40;90.00;;;;;;6178490;28;20078;-83
2021/12/02 01:26:17;;;;;;;1.58;0.40;;;8.40;90.20;;;;;;6178902;28;20051;-83
2021/12/02 01:29:21;;;;;;;0.98;0.40;;;8.40;90.00;;;;;;6178679;28;20058;-83
2021/12/02 01:32:25;;;;;;;5.85;0.55;;;8.30;90.30;;;;;;6179194;28;20133;-82
2021/12/02 01:35:28;;;;;;;0.82;0.20;;;8.30;90.10;;;;;;6178000;28;20062;-82
2021/12/02 01:39:13;;;;;;;1.55;0.55;;;8.20;90.30;;;;;;6162175;28;20464;-82
2021/12/02 01:42:27;;;;;;;1.25;0.60;;;8.00;90.40;;;;;;6155003;28;20067;-82
2021/12/02 01:45:30;;;;;;;2.95;0.57;;;7.80;90.70;;;;;;6155340;28;20055;-83
2021/12/02 01:48:37;;;;;;;2.08;0.55;;;7.70;90.70;;;;;;6155056;28;20047;-83
2021/12/02 01:55:42;;;;;;;1.15;0.70;;;7.50;91.20;;;;;;6154718;28;20126;-83
2021/12/02 01:58:48;;;;;;;2.70;0.77;;;7.40;91.40;;;;;;6155784;29;20054;-83
2021/12/02 02:01:51;;;;;;;4.03;0.55;;;7.40;91.60;;;;;;6155283;28;20071;-82
2021/12/02 02:04:53;;;;;;;0.80;0.40;;;7.40;91.60;;;;;;6155572;28;20636;-82
2021/12/02 02:08:00;;;;;;;2.72;0.80;;;7.40;91.60;;;;;;6155413;28;20051;-81
2021/12/02 02:11:02;;;;;;;1.20;0.43;;;7.40;91.50;;;;;;6155606;29;20142;-84
2021/12/02 02:14:08;;;;;;;0.98;0.57;;;7.40;91.70;;;;;;6154572;28;20059;-83
2021/12/02 02:17:16;;;;;;;1.27;0.50;;;7.30;91.70;;;;;;6154843;28;20054;-82
2021/12/02 02:20:24;;;;;;;1.75;0.63;;;7.40;91.90;;;;;;6154247;28;20051;-84
2021/12/02 02:23:28;;;;;;;2.20;0.43;;;7.40;91.70;;;;;;6157236;28;20054;-80
2021/12/02 02:26:34;;;;;;;0.77;0.50;;;7.40;91.60;;;;;;6154211;29;20055;-81
2021/12/02 02:29:36;;;;;;;3.05;0.77;;;7.30;91.50;;;;;;6154328;28;20523;-82
2021/12/02 02:32:38;;;;;;;4.78;0.70;;;7.20;91.50;;;;;;6154660;28;20054;-82
2021/12/02 02:35:43;;;;;;;3.17;0.77;;;7.10;91.60;;;;;;6154433;28;20159;-82
2021/12/02 02:38:54;;;;;;;0.82;0.20;;;7.00;91.70;;;;;;6155013;29;20058;-81
2021/12/02 02:41:58;;;;;;;0.68;0.30;;;7.00;92.00;;;;;;6154972;28;20473;-82
2021/12/02 02:45:00;;;;;;;4.95;0.73;;;6.90;92.00;;;;;;6160245;28;20125;-82
2021/12/02 02:48:02;;;;;;;2.25;0.43;;;6.90;92.10;;;;;;6159690;28;20051;-82
2021/12/02 02:51:05;;;;;;;1.25;0.50;;;6.90;92.20;;;;;;6161413;29;20138;-82
2021/12/02 02:54:09;;;;;;;3.40;0.45;;;6.80;92.20;;;;;;6161363;28;20061;-82
2021/12/02 02:57:14;;;;;;;0.60;0.40;;;6.80;92.30;;;;;;6161152;28;20115;-83
2021/12/02 03:00:22;;;;;;;2.35;0.47;;;6.80;92.70;;;;;;6162453;28;20051;-81
2021/12/02 03:03:31;;;;;;;2.28;0.40;;;7.00;92.60;;;;;;6178381;28;20051;-82
2021/12/02 03:06:39;;;;;;;2.65;0.40;;;7.20;92.30;;;;;;6186838;28;20055;-83
2021/12/02 03:09:57;;;;;;;7.85;0.73;;;7.30;91.90;;;;;;6183428;28;20681;-83
2021/12/02 03:13:10;;;;;;;7.28;1.00;;;7.30;91.80;;;;;;6182240;28;20106;-83
2021/12/02 03:19:31;;;;;;;2.35;0.17;;;7.50;91.60;;;;;;6177024;28;20139;-82
2021/12/02 03:22:34;;;;;;;3.42;0.50;;;7.60;91.40;;;;;;6177176;28;20047;-82
2021/12/02 03:25:36;;;;;;;0.95;0.30;;;7.60;91.30;;;;;;6176494;28;20051;-83
2021/12/02 03:28:38;;;;;;;1.10;0.75;;;7.60;90.60;;;;;;6178292;28;20424;-84
2021/12/02 03:31:40;;;;;;;2.50;0.47;;;7.60;91.10;;;;;;6178319;28;20047;-81
2021/12/02 03:34:42;;;;;;;2.08;0.70;;;7.60;90.40;;;;;;6177695;28;20523;-82
2021/12/02 03:37:45;;;;;;;3.45;0.55;;;7.50;90.90;;;;;;6176916;28;20046;-82
2021/12/02 03:40:46;;;;;;;3.25;0.43;;;7.40;90.80;;;;;;6176549;28;20133;-83
2021/12/02 03:43:50;;;;;;;1.25;0.30;;;7.30;90.70;;;;;;6176354;28;20054;-82
2021/12/02 03:46:52;;;;;;;1.70;0.55;;;7.30;90.70;;;;;;6177159;28;20512;-82
2021/12/02 03:49:54;;;;;;;1.58;0.60;;;7.30;90.70;;;;;;6176613;28;20058;-83
2021/12/02 03:52:57;;;;;;;23.88;1.65;;;7.30;90.70;;;;;;6213323;23;20089;-83
2021/12/02 03:55:59;;;;;;;2.50;0.30;;;7.40;90.80;;;;;;6220132;28;20062;-84
2021/12/02 03:59:01;;;;;;;2.83;0.50;;;7.50;90.80;;;;;;6217439;28;20141;-83
2021/12/02 04:02:03;;;;;;;4.30;0.60;;;7.50;90.80;;;;;;6216198;28;20071;-83
2021/12/02 04:05:05;;;;;;;1.00;0.50;;;7.60;90.30;;;;;;6214566;28;20058;-84
2021/12/02 04:08:11;;;;;;;3.95;0.40;;;7.50;90.00;;;;;;6217462;28;20042;-83
2021/12/02 04:11:23;;;;;;;1.40;0.30;;;7.40;90.00;;;;;;6218174;28;20136;-84
2021/12/02 04:14:28;;;;;;;6.38;0.50;;;7.40;90.20;;;;;;6217174;28;20050;-82
2021/12/02 04:17:41;;;;;;;3.05;0.88;;;7.40;90.50;;;;;;6217901;28;20046;-84
2021/12/02 04:20:43;;;;;;;2.42;0.30;;;7.50;90.60;;;;;;6219373;28;20097;-82
2021/12/02 04:23:46;;;;;;;1.85;0.60;;;7.40;90.60;;;;;;6211792;28;20042;-83
2021/12/02 04:26:55;;;;;;;1.55;0.50;;;7.50;90.90;;;;;;6195449;28;20457;-84
2021/12/02 04:29:57;;;;;;;1.27;0.65;;;7.60;90.60;;;;;;6188053;28;20121;-83
2021/12/02 04:32:59;;;;;;;1.45;0.50;;;7.60;90.20;;;;;;6188774;28;20077;-82
2021/12/02 04:36:02;;;;;;;0.38;0.22;;;7.60;90.40;;;;;;6187980;28;20042;-85
2021/12/02 04:39:05;;;;;;;0.95;0.40;;;7.50;90.50;;;;;;6189564;28;20058;-84
2021/12/02 04:42:07;;;;;;;4.20;0.40;;;7.50;90.40;;;;;;6190522;28;20105;-82
2021/12/02 04:45:10;;;;;;;5.13;0.70;;;7.50;90.50;;;;;;6199221;28;20046;-82
2021/12/02 04:48:12;;;;;;;1.15;0.55;;;7.60;90.60;;;;;;6203245;28;20030;-85
2021/12/02 04:51:14;;;;;;;4.30;1.00;;;7.60;90.10;;;;;;6192796;28;20125;-83
2021/12/02 04:54:19;;;;;;;0.73;0.20;;;7.60;90.20;;;;;;6193229;28;20078;-83
2021/12/02 04:57:21;;;;;;;2.55;0.50;;;7.70;90.00;;;;;;6199680;28;20488;-83
2021/12/02 05:00:22;;;;;;;0.30;0.20;;;7.80;90.20;;;;;;6191601;28;20110;-83
2021/12/02 05:03:24;;;;;;;3.72;0.50;;;7.80;89.30;;;;;;6191027;28;20485;-83
2021/12/02 05:06:26;;;;;;;6.63;2.15;;;7.70;89.60;;;;;;6190347;28;20110;-84
2021/12/02 05:09:29;;;;;;;2.67;0.88;;;7.60;89.70;;;;;;6190524;28;20098;-83
2021/12/02 05:12:31;;;;;;;2.08;0.22;;;7.60;89.80;;;;;;6190375;28;20222;-83
2021/12/02 05:15:33;;;;;;;4.05;0.60;;;7.60;89.80;;;;;;6188790;28;20136;-83
2021/12/02 05:18:34;;;;;;;4.50;1.00;;;7.60;89.90;;;;;;6190312;28;20061;-84
2021/12/02 05:21:36;;;;;;;1.85;0.75;;;7.60;89.70;;;;;;6189820;28;20045;-84
2021/12/02 05:24:39;;;;;;;2.03;0.40;;;7.60;89.50;;;;;;6202813;28;20100;-82
2021/12/02 05:27:41;;;;;;;4.85;0.68;;;7.60;89.30;;;;;;6213022;28;20049;-84
2021/12/02 05:30:43;;;;;;;3.35;0.52;;;7.60;89.10;;;;;;6213016;28;20046;-83
2021/12/02 05:33:45;;;;;;;2.78;0.80;;;7.50;89.30;;;;;;6211555;28;20049;-83
2021/12/02 05:36:47;;;;;;;1.35;0.32;;;7.40;89.80;;;;;;6211304;28;20053;-83
2021/12/02 05:39:50;;;;;;;0.90;0.30;;;7.40;89.70;;;;;;6209898;28;20076;-84
2021/12/02 05:42:52;;;;;;;2.42;0.60;;;7.40;89.30;;;;;;6210859;28;20046;-83
2021/12/02 05:45:54;;;;;;;3.10;0.40;;;7.50;89.10;;;;;;6209904;28;20072;-82
2021/12/02 05:48:56;;;;;;;3.53;0.50;;;7.50;90.00;;;;;;6209831;28;20663;-83
2021/12/02 05:51:58;;;;;;;2.05;0.70;;;7.40;89.70;;;;;;6209090;28;20066;-83
2021/12/02 05:55:01;;;;;;;1.65;0.30;;;7.30;89.40;;;;;;6209955;28;20207;-83
2021/12/02 05:58:02;;;;;;;8.38;1.15;;;7.20;89.60;;;;;;6213195;28;20046;-82
2021/12/02 06:01:04;;;;;;;1.63;0.55;;;7.10;90.30;;;;;;6213980;28;20052;-83
2021/12/02 06:04:06;;;;;;;0.70;0.40;;;7.00;90.10;;;;;;6214380;28;20046;-82
2021/12/02 06:07:08;;;;;;;4.10;0.52;;;7.00;90.40;;;;;;6213959;28;20063;-84
2021/12/02 06:10:12;;;;;;;2.17;0.70;;;7.00;90.70;;;;;;6210491;28;20434;-83
2021/12/02 06:13:13;;;;;;;6.53;0.93;;;7.10;90.40;;;;;;6217473;28;20066;-82
2021/12/02 06:16:16;;;;;;;0.55;0.38;;;7.20;90.30;;;;;;6216699;28;20097;-83
2021/12/02 06:19:18;;;;;;;0.70;0.30;;;7.40;90.10;;;;;;6217223;28;20050;-84
2021/12/02 06:22:20;;;;;;;1.77;0.30;;;7.40;90.30;;;;;;6218152;28;20065;-81
2021/12/02 06:28:57;;;;;;;1.65;0.65;;;7.50;90.10;;;;;;6118508;29;20059;-83
2021/12/02 06:31:59;;;;;;;4.53;1.52;;;7.50;90.00;;;;;;6115744;29;20052;-81
2021/12/02 06:35:00;;;;;;;3.47;0.35;;;7.40;90.00;;;;;;6182844;28;20591;-82
2021/12/02 06:38:03;;;;;;;2.28;0.40;;;7.40;90.10;;;;;;6186796;28;20043;-83
2021/12/02 06:41:06;;;;;;;5.22;0.50;;;7.30;90.60;;;;;;6189657;28;20465;-82
2021/12/02 06:44:08;;;;;;;1.00;0.45;;;7.40;90.40;;;;;;6188446;28;20042;-82
2021/12/02 06:47:10;;;;;;;5.20;0.60;;;7.50;90.40;;;;;;6190176;28;20058;-81
2021/12/02 06:50:16;;;;;;;1.85;0.80;;;7.60;90.30;;;;;;6190126;28;20054;-83
2021/12/02 06:53:19;;;;;;;2.13;1.20;;;7.50;90.20;;;;;;6186739;28;20043;-84
2021/12/02 06:56:22;;;;;;;1.58;0.52;;;7.50;90.50;;;;;;6187003;28;20644;-83
2021/12/02 06:59:24;;;;;;;4.05;1.15;;;7.50;90.60;;;;;;6188364;28;20074;-82
2021/12/02 07:02:26;;;;;;;2.88;0.63;;;7.60;90.60;;;;;;6189150;28;20096;-84
2021/12/02 07:05:29;;;;;;;9.00;0.70;;;7.50;90.80;;;;;;6184186;28;20070;-84
2021/12/02 07:08:32;;;;;;;1.30;0.65;;;7.50;91.00;;;;;;6185962;28;20456;-82
2021/12/02 07:11:35;;;;;;;2.80;1.20;;;7.50;91.20;;;;;;6186367;28;20054;-82
2021/12/02 07:14:37;;;;;;;3.75;0.80;;;7.50;91.40;;;;;;6186709;28;20062;-83
2021/12/02 07:17:39;;;;;;;2.60;0.95;;;7.50;91.50;;;;;;6185263;28;20055;-84
2021/12/02 07:20:42;;;;;;;2.28;0.60;;;7.60;91.10;;;;;;6186827;28;20114;-82
2021/12/02 07:23:44;;;;;;;5.25;1.00;;;7.50;91.30;;;;;;6193052;28;20043;-83
2021/12/02 07:26:47;;;;;;;2.08;1.02;;;7.60;91.50;;;;;;6204394;28;20114;-82
2021/12/02 07:29:49;;;;;;;1.73;1.10;;;7.60;91.40;;;;;;6216688;28;20066;-82
2021/12/02 07:32:53;;;;;;;3.20;1.35;;;7.70;91.50;;;;;;6217495;28;20053;-82
2021/12/02 07:35:55;;;;;;;4.55;1.33;;;7.70;91.40;;;;;;6217175;28;20051;-82
2021/12/02 07:38:57;;;;;;;5.13;1.20;;;7.70;91.20;;;;;;6221240;28;20055;-83
2021/12/02 07:42:01;;;;;;;9.05;1.38;;;7.70;91.10;;;;;;6214323;28;20109;-83
2021/12/02 07:45:05;;;;;;;4.20;1.42;;;7.70;91.20;;;;;;6214743;28;20046;-83
2021/12/02 07:48:09;;;;;;;3.03;1.15;;;7.70;91.10;;;;;;6211854;28;20126;-82
2021/12/02 07:51:12;;;;;;;3.60;1.42;;;7.80;91.10;;;;;;6210368;28;20081;-82
2021/12/02 07:54:18;;;;;;;5.93;1.88;;;7.80;91.10;;;;;;6210781;28;20114;-81
2021/12/02 07:57:22;;;;;;;3.53;1.48;;;7.80;90.80;;;;;;6201458;28;20046;-82
2021/12/02 08:00:25;;;;;;;4.57;1.35;;;7.80;90.80;;;;;;6213063;28;20570;-80
2021/12/02 08:03:29;;;;;;;3.40;1.15;;;7.80;91.00;;;;;;6206982;28;20050;-81
2021/12/02 08:06:30;;;;;;;2.75;1.05;;;7.80;90.70;;;;;;6200596;28;20053;-79
2021/12/02 08:09:32;;;;;;;5.25;1.88;;;7.80;90.70;;;;;;6198080;28;20531;-80
2021/12/02 08:12:36;;;;;;;5.05;1.83;;;7.80;90.60;;;;;;6214929;28;20047;-80
2021/12/02 08:15:38;;;;;;;5.82;2.03;;;7.80;90.70;;;;;;6206149;28;20047;-80
2021/12/02 08:18:40;;;;;;;5.57;1.42;;;7.80;90.60;;;;;;6201463;28;20055;-81
2021/12/02 08:21:42;;;;;;;12.88;2.42;;;7.70;90.90;;;;;;6192337;28;20071;-80
2021/12/02 08:24:43;;;;;;;3.75;2.33;;;7.60;90.90;;;;;;6200871;28;20067;-82
2021/12/02 08:27:47;;;;;;;4.60;2.15;;;7.50;91.10;;;;;;6212014;28;20062;-81
2021/12/02 08:30:50;;;;;;;4.13;2.00;;;7.30;91.00;;;;;;6216587;28;20570;-80
2021/12/02 08:33:53;;;;;;;3.15;1.48;;;7.20;91.60;;;;;;6204910;28;20073;-79
2021/12/02 08:36:56;;;;;;;6.53;1.63;;;7.20;91.90;;;;;;6190505;28;20046;-79
2021/12/02 08:40:00;;;;;;;2.83;1.35;;;7.10;91.90;;;;;;6188524;28;20054;-79
2021/12/02 08:43:04;;;;;;;1.70;1.20;;;7.10;91.80;;;;;;6187240;28;20058;-80
2021/12/02 08:46:06;;;;;;;2.03;0.95;;;6.90;92.50;;;;;;6185921;28;20528;-81
2021/12/02 08:49:08;;;;;;;2.38;1.10;;;6.90;92.80;;;;;;6186673;28;20054;-81
2021/12/02 08:52:10;;;;;;;2.17;0.40;;;6.80;93.10;;;;;;6187158;28;20063;-80
2021/12/02 08:55:13;;;;;;;1.73;0.68;;;6.60;93.00;;;;;;6185772;28;20378;-79
2021/12/02 08:58:16;;;;;;;1.27;0.63;;;6.60;93.20;;;;;;6188270;28;20074;-80
2021/12/02 09:01:18;;;;;;;0.30;0.30;;;6.60;93.50;;;;;;6185315;28;20097;-81
2021/12/02 09:04:20;;;;;;;1.15;0.55;;;6.60;93.30;;;;;;6204455;28;20050;-78
2021/12/02 09:07:21;;;;;;;2.15;0.77;;;6.60;93.50;;;;;;6191817;28;20137;-80
2021/12/02 09:10:25;;;;;;;2.30;0.80;;;6.70;93.70;;;;;;6186753;28;20047;-82
2021/12/02 09:13:29;;;;;;;2.42;0.95;;;6.70;93.70;;;;;;6184801;28;20090;-81
2021/12/02 09:16:31;;;;;;;1.63;0.82;;;6.80;93.70;;;;;;6184017;28;20092;-80
2021/12/02 09:19:33;;;;;;;2.85;1.23;;;6.90;93.70;;;;;;6184367;28;20057;-81
2021/12/02 09:22:35;;;;;;;2.80;1.15;;;7.00;93.80;;;;;;6183106;28;20186;-79
2021/12/02 09:25:37;;;;;;;3.72;1.58;;;7.10;93.70;;;;;;6181887;28;20051;-80
2021/12/02 09:28:40;;;;;;;3.22;1.23;;;7.10;93.80;;;;;;6194596;28;20070;-80
2021/12/02 09:31:42;;;;;;;2.50;1.27;;;7.10;94.00;;;;;;6207688;28;20046;-81
2021/12/02 09:34:44;;;;;;;3.17;1.35;;;7.20;93.80;;;;;;6201238;28;20058;-82
2021/12/02 09:37:46;;;;;;;3.78;1.55;;;7.30;93.80;;;;;;6211109;28;20193;-81
2021/12/02 09:40:48;;;;;;;2.22;1.70;;;7.30;93.50;;;;;;6208691;28;20042;-81
2021/12/02 09:43:52;;;;;;;4.50;1.67;;;7.30;93.40;;;;;;6208353;28;20042;-81
2021/12/02 09:46:54;;;;;;;6.20;1.85;;;7.20;93.50;;;;;;6207538;28;20046;-80
2021/12/02 09:50:00;;;;;;;4.63;2.20;;;7.20;93.80;;;;;;6207869;28;20114;-80
2021/12/02 09:53:09;;;;;;;4.10;1.88;;;7.30;94.00;;;;;;6237008;23;20112;-79
2021/12/02 09:56:15;;;;;;;2.53;1.20;;;7.30;93.60;;;;;;6252818;28;20045;-80
2021/12/02 09:59:26;;;;;;;3.75;1.75;;;7.30;93.70;;;;;;6255490;28;20109;-79
2021/12/02 10:02:27;;;;;;;3.20;1.40;;;7.30;93.70;;;;;;6254173;28;20049;-82
2021/12/02 10:05:36;;;;;;;4.28;1.90;;;7.40;93.70;;;;;;6221194;28;20100;-79
2021/12/02 10:08:46;;;;;;;4.32;1.77;;;7.50;93.80;;;;;;6230015;28;20054;-79
2021/12/02 10:11:52;;;;;;;6.70;2.60;;;7.60;93.70;;;;;;6232324;28;20046;-81
2021/12/02 10:14:59;;;;;;;6.40;2.30;;;7.70;93.60;;;;;;6231155;28;20046;-81
2021/12/02 10:18:10;;;;;;;4.43;1.60;;;7.60;93.60;;;;;;6232132;28;20042;-79
2021/12/02 10:21:21;;;;;;;3.00;1.92;;;7.60;93.80;;;;;;6205505;28;20058;-80
2021/12/02 10:24:26;;;;;;;18.42;7.60;;;7.60;93.90;;;;;;6204550;28;20046;-79
2021/12/02 10:27:27;;;;;;;5.72;2.40;;;7.60;93.90;;;;;;6206816;28;20050;-79
2021/12/02 10:30:31;;;;;;;4.40;2.72;;;7.70;94.00;;;;;;6220194;28;20050;-80
2021/12/02 10:33:35;;;;;;;5.18;2.25;;;7.70;94.00;;;;;;6214428;28;20061;-81
2021/12/02 10:36:40;;;;;;;4.72;2.08;;;7.70;93.80;;;;;;6224773;28;20486;-80
2021/12/02 10:39:53;;;;;;;3.55;1.65;;;7.70;93.90;;;;;;6230905;28;20133;-80
2021/12/02 10:42:55;;;;;;;4.47;1.30;;;7.70;93.90;;;;;;6231328;28;20056;-79
2021/12/02 10:46:17;;;;;;;5.65;2.00;;;7.70;93.90;;;;;;6232892;28;20121;-81
2021/12/02 10:49:20;;;;;;;5.75;1.95;;;7.70;93.90;;;;;;6234176;28;20500;-80
2021/12/02 10:52:24;;;;;;;3.13;1.77;;;7.70;93.90;;;;;;6233979;28;20543;-79
2021/12/02 10:55:28;;;;;;;4.05;2.03;;;7.80;94.00;;;;;;6236283;28;20101;-81
2021/12/02 10:58:31;;;;;;;8.10;2.30;;;7.80;94.00;;;;;;6236627;28;20046;-80
2021/12/02 11:01:41;;;;;;;7.95;2.78;;;7.90;93.80;;;;;;6236134;28;20053;-80
2021/12/02 11:04:45;;;;;;;6.00;3.10;;;7.90;93.60;;;;;;6227786;28;20038;-79
2021/12/02 11:07:53;;;;;;;6.80;2.92;;;7.90;93.60;;;;;;6241152;28;20109;-80
2021/12/02 11:10:55;;;;;;;9.63;3.03;;;7.90;93.80;;;;;;6240757;28;20181;-80
2021/12/02 11:13:56;;;;;;;6.82;3.60;;;8.00;93.60;;;;;;6240391;28;20095;-81
2021/12/02 11:17:07;;;;;;;15.10;4.07;;;8.00;93.80;;;;;;6239770;28;20112;-80
2021/12/02 11:20:13;;;;;;;4.35;2.67;;;8.10;93.90;;;;;;6239309;28;20058;-80
2021/12/02 11:23:18;;;;;;;5.63;3.22;;;8.20;93.90;;;;;;6240022;28;20049;-81
2021/12/02 11:26:20;;;;;;;8.73;2.75;;;8.40;93.80;;;;;;6241028;28;20057;-80
2021/12/02 11:29:22;;;;;;;3.72;2.22;;;8.50;93.50;;;;;;6239965;28;20129;-81
2021/12/02 11:32:28;;;;;;;10.85;2.58;;;8.50;93.50;;;;;;6240908;28;20160;-80
2021/12/02 11:35:33;;;;;;;6.68;2.38;;;8.60;93.30;;;;;;6231512;28;20042;-80
2021/12/02 11:38:35;;;;;;;6.38;2.28;;;8.60;93.20;;;;;;6241364;28;20049;-80
2021/12/02 11:41:37;;;;;;;5.50;1.88;;;8.60;92.80;;;;;;6241091;28;20065;-81
2021/12/02 11:44:39;;;;;;;7.22;2.33;;;8.50;92.70;;;;;;6239735;28;20116;-80
2021/12/02 11:47:43;;;;;;;6.07;3.38;;;8.50;92.80;;;;;;6240997;28;20050;-80
2021/12/02 11:50:45;;;;;;;4.07;1.58;;;8.50;93.00;;;;;;6240365;28;20054;-80
2021/12/02 11:53:47;;;;;;;4.07;2.13;;;8.50;92.10;;;;;;6239836;28;20460;-81
2021/12/02 11:56:49;;;;;;;3.00;1.83;;;8.40;92.00;;;;;;6241375;28;20049;-80
2021/12/02 11:59:51;;;;;;;3.17;1.70;;;8.40;92.30;;;;;;6239747;28;20542;-81
2021/12/02 12:02:57;;;;;;;3.95;1.77;;;8.50;91.70;;;;;;6240328;28;20056;-81
2021/12/02 12:06:01;;;;;;;4.93;2.60;;;8.40;90.90;;;;;;6230462;28;20533;-80
2021/12/02 12:09:11;;;;;;;3.90;1.95;;;8.40;92.00;;;;;;6239267;28;20053;-80
2021/12/02 12:12:13;;;;;;;8.00;2.55;;;8.50;91.60;;;;;;6223836;28;20419;-82
2021/12/02 12:15:36;;;;;;;6.00;2.22;;;8.50;91.40;;;;;;6217808;28;20046;-81
2021/12/02 12:18:40;;;;;;;5.63;1.90;;;8.50;91.10;;;;;;6238058;28;20109;-80
2021/12/02 12:21:45;;;;;;;4.28;1.83;;;8.60;91.20;;;;;;6236959;28;20041;-80
2021/12/02 12:24:49;;;;;;;5.53;2.42;;;8.50;91.30;;;;;;6228314;28;20042;-81
2021/12/02 12:28:00;;;;;;;8.20;2.55;;;8.60;91.60;;;;;;6229726;28;20058;-80
2021/12/02 12:31:06;;;;;;;20.65;7.57;;;8.70;91.50;;;;;;6235841;28;20065;-81
2021/12/02 12:34:47;;;;;;;6.22;2.33;;;8.80;91.20;;;;;;6216061;28;20507;-80
2021/12/02 12:37:56;;;;;;;4.53;2.97;;;8.70;91.10;;;;;;6202728;28;20081;-80
2021/12/02 12:41:01;;;;;;;4.57;2.25;;;8.70;90.60;;;;;;6202500;28;20050;-79
2021/12/02 12:44:03;;;;;;;8.23;2.00;;;8.50;90.00;;;;;;6203099;28;20070;-81
2021/12/02 12:47:05;;;;;;;7.57;2.58;;;8.40;90.00;;;;;;6204064;28;20152;-81
2021/12/02 12:50:27;;;;;;;9.00;5.18;;;8.20;90.10;;;;;;6210087;28;20137;-81
2021/12/02 12:53:36;;;;;;;6.80;3.60;;;8.00;90.00;;;;;;6204077;28;20051;-81
2021/12/02 12:56:40;;;;;;;8.52;6.70;;;7.90;89.50;;;;;;6203984;28;20046;-82
2021/12/02 12:59:54;;;;;;;27.58;18.95;;;7.70;90.00;;;;;;6211070;28;20042;-80
2021/12/02 13:02:57;;;;;;;68.72;43.95;;;7.70;89.10;;;;;;6216606;28;20474;-80
2021/12/02 13:06:07;;;;;;;45.17;28.77;;;7.60;89.50;;;;;;6221500;28;20443;-81
2021/12/02 13:09:09;;;;;;;44.80;27.30;;;7.50;89.80;;;;;;6210108;28;20046;-81
2021/12/02 13:12:13;;;;;;;48.97;30.95;;;7.50;90.20;;;;;;6204420;28;20049;-81
2021/12/02 13:15:17;;;;;;;80.72;36.08;;;7.40;90.20;;;;;;6210449;28;20221;-80
2021/12/02 13:18:33;;;;;;;2.40;1.10;;;7.50;90.00;;;;;;6216334;28;20050;-80
2021/12/02 13:21:36;;;;;;;37.63;15.25;;;7.40;90.10;;;;;;6213950;28;20042;-81
2021/12/02 13:24:38;;;;;;;41.50;16.38;;;7.40;90.10;;;;;;6212190;28;20133;-81
2021/12/02 13:27:40;;;;;;;32.97;13.80;;;7.40;89.90;;;;;;6211332;28;20042;-81
2021/12/02 13:30:47;;;;;;;4.95;1.70;;;7.50;90.40;;;;;;6206100;28;20081;-81
2021/12/02 13:33:52;;;;;;;5.38;1.58;;;7.50;90.30;;;;;;6214916;28;20038;-81
2021/12/02 13:36:57;;;;;;;7.15;5.03;;;7.60;90.10;;;;;;6213676;28;20411;-81
2021/12/02 13:39:59;;;;;;;3.90;1.00;;;7.60;89.30;;;;;;6203090;28;20447;-81
2021/12/02 13:43:01;;;;;;;2.05;0.90;;;7.60;89.60;;;;;;6202289;28;20462;-80
2021/12/02 13:46:11;;;;;;;2.95;1.52;;;7.60;88.80;;;;;;6201729;28;20125;-80
2021/12/02 13:49:17;;;;;;;2.58;0.77;;;7.60;88.70;;;;;;6202531;28;20042;-80
2021/12/02 13:52:24;;;;;;;1.38;0.60;;;7.70;88.10;;;;;;6212482;28;20066;-80
2021/12/02 13:55:28;;;;;;;2.20;1.07;;;7.70;87.80;;;;;;6209028;28;20092;-78
2021/12/02 13:58:31;;;;;;;2.33;0.73;;;7.70;88.90;;;;;;6202909;28;20312;-79
2021/12/02 14:01:33;;;;;;;4.50;0.93;;;7.90;87.90;;;;;;6209541;28;20395;-79
2021/12/02 14:04:45;;;;;;;1.77;0.75;;;7.90;88.80;;;;;;6222704;28;20062;-80
2021/12/02 14:07:49;;;;;;;1.27;0.50;;;8.00;88.40;;;;;;6228947;28;20495;-81
2021/12/02 14:10:52;;;;;;;3.30;0.85;;;8.00;88.80;;;;;;6227157;28;20397;-80
2021/12/02 14:13:56;;;;;;;2.20;0.85;;;8.10;88.20;;;;;;6218692;28;20046;-80
2021/12/02 14:17:04;;;;;;;5.03;3.05;;;8.10;88.50;;;;;;6201860;28;20061;-81
2021/12/02 14:20:10;;;;;;;2.25;1.00;;;8.20;87.90;;;;;;6202127;28;20784;-81
2021/12/02 14:23:16;;;;;;;1.67;0.82;;;8.10;87.00;;;;;;6201495;28;20196;-81
2021/12/02 14:26:20;;;;;;;7.13;1.55;;;8.00;86.50;;;;;;6202953;28;20499;-81
2021/12/02 14:29:22;;;;;;;1.63;0.65;;;7.90;87.70;;;;;;6208331;28;20057;-81
2021/12/02 14:32:31;;;;;;;7.25;1.23;;;7.80;87.50;;;;;;6211480;28;20058;-79
2021/12/02 14:35:42;;;;;;;4.15;1.40;;;7.70;87.60;;;;;;6211718;28;20060;-80
2021/12/02 14:38:47;;;;;;;7.13;3.35;;;7.60;87.70;;;;;;6202629;28;20060;-80
2021/12/02 14:41:51;;;;;;;3.47;1.33;;;7.50;87.70;;;;;;6206877;28;20050;-80
2021/12/02 14:44:53;;;;;;;6.13;2.13;;;7.40;88.90;;;;;;6208691;28;20117;-80
2021/12/02 14:47:55;;;;;;;6.13;2.60;;;7.30;88.80;;;;;;6212063;28;20046;-80
2021/12/02 14:50:59;;;;;;;1.67;0.93;;;7.30;88.90;;;;;;6207565;28;20054;-83
2021/12/02 14:54:02;;;;;;;3.88;1.20;;;7.30;88.30;;;;;;6202418;28;20053;-82
2021/12/02 14:57:06;;;;;;;5.07;1.15;;;7.20;89.00;;;;;;6201936;28;20043;-82
2021/12/02 15:00:11;;;;;;;6.40;1.15;;;7.20;88.20;;;;;;6203577;28;20055;-84
2021/12/02 15:03:13;;;;;;;2.67;1.70;;;7.20;88.60;;;;;;6215362;28;20069;-85
2021/12/02 15:06:34;;;;;;;2.20;1.17;;;7.20;89.40;;;;;;6210699;28;20165;-84
2021/12/02 15:09:40;;;;;;;18.00;5.15;;;7.20;89.30;;;;;;6198629;28;20050;-84
2021/12/02 15:12:44;;;;;;;54.67;18.70;;;7.10;89.30;;;;;;6201305;28;20427;-84
2021/12/02 15:15:52;;;;;;;7.90;2.85;;;7.20;89.40;;;;;;6208625;28;20125;-84
2021/12/02 15:18:59;;;;;;;5.00;1.00;;;7.10;89.30;;;;;;6206917;28;20477;-84
2021/12/02 15:22:31;;;;;;;3.10;1.00;;;7.10;88.50;;;;;;6209155;28;20114;-84
2021/12/02 15:25:38;;;;;;;4.80;2.00;;;7.10;89.10;;;;;;6210986;28;20073;-83
2021/12/02 15:28:44;;;;;;;4.25;1.85;;;7.10;89.50;;;;;;6204573;28;20050;-84
2021/12/02 15:31:54;;;;;;;5.03;2.15;;;7.10;88.80;;;;;;6199228;28;20057;-84
2021/12/02 15:35:03;;;;;;;4.18;1.70;;;7.00;89.40;;;;;;6223851;28;20042;-83
2021/12/02 15:38:09;;;;;;;3.47;1.80;;;7.00;89.90;;;;;;6203828;28;20434;-84
2021/12/02 15:41:16;;;;;;;4.65;1.70;;;6.90;88.40;;;;;;6209988;28;20073;-84
2021/12/02 15:44:18;;;;;;;6.88;2.05;;;6.80;88.40;;;;;;6204613;28;20712;-81
2021/12/02 15:47:20;;;;;;;6.57;1.77;;;6.70;88.80;;;;;;6203794;28;20141;-82
2021/12/02 15:50:27;;;;;;;2.22;1.25;;;6.70;89.20;;;;;;6205274;28;20057;-82
2021/12/02 15:53:30;;;;;;;2.95;1.52;;;6.70;88.50;;;;;;6206627;28;20070;-83
2021/12/02 15:56:34;;;;;;;2.67;1.33;;;6.60;89.30;;;;;;6201016;28;20046;-80
2021/12/02 15:59:37;;;;;;;4.15;2.65;;;6.60;89.20;;;;;;6204430;28;20408;-79
2021/12/02 16:02:47;;;;;;;5.97;3.00;;;6.60;89.00;;;;;;6213017;28;20538;-81
2021/12/02 16:09:19;;;;;;;4.55;1.90;;;6.60;89.20;;;;;;6207827;28;20484;-81
2021/12/02 16:12:29;;;;;;;4.40;2.00;;;6.60;88.10;;;;;;6192949;28;20054;-81
2021/12/02 16:15:31;;;;;;;3.97;1.40;;;6.50;88.60;;;;;;6201107;28;20038;-80
2021/12/02 16:22:02;;;;;;;2.03;1.10;;;6.50;89.20;;;;;;6198503;28;20051;-81
2021/12/02 16:25:06;;;;;;;2.88;1.20;;;6.40;89.20;;;;;;6208950;28;20142;-82
2021/12/02 16:35:34;;;;;;;14.02;4.90;;;6.50;89.50;;;;;;6206893;28;20061;-82
2021/12/02 16:38:36;;;;;;;5.32;1.95;;;6.50;89.90;;;;;;6224841;28;20054;-81